sensor_id;sensor_type;location;lat;lon;timestamp;temperature;humidity
80218;DHT22;69533;37.974;23.708;2023-05-01T00:00:13;22.30;48.60
80218;DHT22;69533;37.974;23.708;2023-05-01T00:02:38;22.30;48.70
80218;DHT22;69533;37.974;23.708;2023-05-01T00:05:05;22.30;48.80
80218;DHT22;69533;37.974;23.708;2023-05-01T00:07:32;22.30;48.80
80218;DHT22;69533;37.974;23.708;2023-05-01T00:09:58;22.30;48.80
80218;DHT22;69533;37.974;23.708;2023-05-01T00:12:24;22.30;48.80
80218;DHT22;69533;37.974;23.708;2023-05-01T00:14:50;22.30;48.80
80218;DHT22;69533;37.974;23.708;2023-05-01T00:17:16;22.30;48.80
80218;DHT22;69533;37.974;23.708;2023-05-01T00:19:42;22.30;48.80
80218;DHT22;69533;37.974;23.708;2023-05-01T00:22:08;22.30;48.90
80218;DHT22;69533;37.974;23.708;2023-05-01T00:24:34;22.30;48.90
80218;DHT22;69533;37.974;23.708;2023-05-01T00:26:59;22.30;49.00
80218;DHT22;69533;37.974;23.708;2023-05-01T00:29:25;22.30;49.00
80218;DHT22;69533;37.974;23.708;2023-05-01T00:31:51;22.30;48.90
80218;DHT22;69533;37.974;23.708;2023-05-01T00:34:17;22.30;48.80
80218;DHT22;69533;37.974;23.708;2023-05-01T00:36:43;22.30;48.70
80218;DHT22;69533;37.974;23.708;2023-05-01T00:39:08;22.30;48.60
80218;DHT22;69533;37.974;23.708;2023-05-01T00:41:34;22.20;48.50
80218;DHT22;69533;37.974;23.708;2023-05-01T00:44:00;22.30;48.50
80218;DHT22;69533;37.974;23.708;2023-05-01T00:46:27;22.20;48.40
80218;DHT22;69533;37.974;23.708;2023-05-01T00:48:55;22.20;48.40
80218;DHT22;69533;37.974;23.708;2023-05-01T00:51:21;22.20;49.30
80218;DHT22;69533;37.974;23.708;2023-05-01T00:53:47;22.20;48.10
80218;DHT22;69533;37.974;23.708;2023-05-01T00:56:14;22.20;48.00
80218;DHT22;69533;37.974;23.708;2023-05-01T00:58:40;22.20;47.90
80218;DHT22;69533;37.974;23.708;2023-05-01T01:01:06;22.20;47.80
80218;DHT22;69533;37.974;23.708;2023-05-01T01:03:35;22.20;47.70
80218;DHT22;69533;37.974;23.708;2023-05-01T01:06:09;22.20;47.60
80218;DHT22;69533;37.974;23.708;2023-05-01T01:11:32;22.20;47.30
80218;DHT22;69533;37.974;23.708;2023-05-01T01:14:21;22.20;47.30
80218;DHT22;69533;37.974;23.708;2023-05-01T01:17:20;22.10;47.20
80218;DHT22;69533;37.974;23.708;2023-05-01T01:22:35;22.10;47.10
80218;DHT22;69533;37.974;23.708;2023-05-01T01:25:29;22.10;47.00
80218;DHT22;69533;37.974;23.708;2023-05-01T01:28:16;22.10;47.00
80218;DHT22;69533;37.974;23.708;2023-05-01T01:36:21;22.10;46.80
80218;DHT22;69533;37.974;23.708;2023-05-01T01:41:33;22.10;46.70
80218;DHT22;69533;37.974;23.708;2023-05-01T01:44:16;22.10;46.70
80218;DHT22;69533;37.974;23.708;2023-05-01T01:46:47;22.10;46.70
80218;DHT22;69533;37.974;23.708;2023-05-01T01:49:24;22.10;46.60
80218;DHT22;69533;37.974;23.708;2023-05-01T01:51:51;22.10;46.60
80218;DHT22;69533;37.974;23.708;2023-05-01T01:54:21;22.10;46.50
80218;DHT22;69533;37.974;23.708;2023-05-01T01:56:49;22.10;46.50
80218;DHT22;69533;37.974;23.708;2023-05-01T01:59:16;22.10;46.40
80218;DHT22;69533;37.974;23.708;2023-05-01T02:01:43;22.10;46.40
80218;DHT22;69533;37.974;23.708;2023-05-01T02:04:10;22.10;46.30
80218;DHT22;69533;37.974;23.708;2023-05-01T02:06:39;22.10;46.30
80218;DHT22;69533;37.974;23.708;2023-05-01T02:09:05;22.10;46.30
80218;DHT22;69533;37.974;23.708;2023-05-01T02:11:35;22.10;46.30
80218;DHT22;69533;37.974;23.708;2023-05-01T02:14:02;22.10;46.30
80218;DHT22;69533;37.974;23.708;2023-05-01T02:16:29;22.10;46.30
80218;DHT22;69533;37.974;23.708;2023-05-01T02:18:56;22.10;46.30
80218;DHT22;69533;37.974;23.708;2023-05-01T02:21:23;22.10;46.30
80218;DHT22;69533;37.974;23.708;2023-05-01T02:23:50;22.10;46.30
80218;DHT22;69533;37.974;23.708;2023-05-01T02:26:17;22.10;46.30
80218;DHT22;69533;37.974;23.708;2023-05-01T02:28:46;22.10;46.30
80218;DHT22;69533;37.974;23.708;2023-05-01T02:31:11;22.10;46.30
80218;DHT22;69533;37.974;23.708;2023-05-01T02:33:37;22.10;46.20
80218;DHT22;69533;37.974;23.708;2023-05-01T02:36:03;22.10;46.10
80218;DHT22;69533;37.974;23.708;2023-05-01T02:38:29;22.10;46.20
80218;DHT22;69533;37.974;23.708;2023-05-01T02:40:56;22.10;46.10
80218;DHT22;69533;37.974;23.708;2023-05-01T02:43:24;22.10;46.10
80218;DHT22;69533;37.974;23.708;2023-05-01T02:45:52;22.10;46.10
80218;DHT22;69533;37.974;23.708;2023-05-01T02:48:22;22.10;46.10
80218;DHT22;69533;37.974;23.708;2023-05-01T02:50:49;22.10;46.10
80218;DHT22;69533;37.974;23.708;2023-05-01T02:53:16;22.10;47.10
80218;DHT22;69533;37.974;23.708;2023-05-01T02:55:43;22.10;46.10
80218;DHT22;69533;37.974;23.708;2023-05-01T02:58:14;22.10;46.10
80218;DHT22;69533;37.974;23.708;2023-05-01T03:00:40;22.10;46.00
80218;DHT22;69533;37.974;23.708;2023-05-01T03:03:06;22.10;46.10
80218;DHT22;69533;37.974;23.708;2023-05-01T03:05:32;22.10;46.00
80218;DHT22;69533;37.974;23.708;2023-05-01T03:07:58;22.10;46.00
80218;DHT22;69533;37.974;23.708;2023-05-01T03:10:23;22.10;46.00
80218;DHT22;69533;37.974;23.708;2023-05-01T03:12:49;22.10;46.00
80218;DHT22;69533;37.974;23.708;2023-05-01T03:15:15;22.10;46.00
80218;DHT22;69533;37.974;23.708;2023-05-01T03:17:41;22.00;45.90
80218;DHT22;69533;37.974;23.708;2023-05-01T03:20:07;22.00;45.90
80218;DHT22;69533;37.974;23.708;2023-05-01T03:22:34;22.00;45.90
80218;DHT22;69533;37.974;23.708;2023-05-01T03:25:00;22.00;45.90
80218;DHT22;69533;37.974;23.708;2023-05-01T03:27:26;22.10;45.90
80218;DHT22;69533;37.974;23.708;2023-05-01T03:29:52;22.00;45.90
80218;DHT22;69533;37.974;23.708;2023-05-01T03:32:17;22.00;45.90
80218;DHT22;69533;37.974;23.708;2023-05-01T03:34:43;22.00;45.90
80218;DHT22;69533;37.974;23.708;2023-05-01T03:37:10;22.00;45.90
80218;DHT22;69533;37.974;23.708;2023-05-01T03:39:36;22.00;45.90
80218;DHT22;69533;37.974;23.708;2023-05-01T03:42:02;22.00;45.90
80218;DHT22;69533;37.974;23.708;2023-05-01T03:44:27;22.00;45.90
80218;DHT22;69533;37.974;23.708;2023-05-01T03:46:53;22.00;45.90
80218;DHT22;69533;37.974;23.708;2023-05-01T03:49:19;22.00;45.90
80218;DHT22;69533;37.974;23.708;2023-05-01T03:51:45;22.00;45.90
80218;DHT22;69533;37.974;23.708;2023-05-01T03:54:12;22.00;45.90
80218;DHT22;69533;37.974;23.708;2023-05-01T03:56:37;22.00;46.00
80218;DHT22;69533;37.974;23.708;2023-05-01T03:59:03;22.00;46.00
80218;DHT22;69533;37.974;23.708;2023-05-01T04:01:29;22.00;46.00
80218;DHT22;69533;37.974;23.708;2023-05-01T04:03:56;22.00;46.00
80218;DHT22;69533;37.974;23.708;2023-05-01T04:06:22;22.00;45.90
80218;DHT22;69533;37.974;23.708;2023-05-01T04:08:48;22.00;46.00
80218;DHT22;69533;37.974;23.708;2023-05-01T04:11:14;22.00;46.00
80218;DHT22;69533;37.974;23.708;2023-05-01T04:13:39;22.00;45.90
80218;DHT22;69533;37.974;23.708;2023-05-01T04:16:05;22.10;46.00
80218;DHT22;69533;37.974;23.708;2023-05-01T04:18:31;22.10;46.00
80218;DHT22;69533;37.974;23.708;2023-05-01T04:20:57;22.10;46.00
80218;DHT22;69533;37.974;23.708;2023-05-01T04:23:23;22.10;46.00
80218;DHT22;69533;37.974;23.708;2023-05-01T04:25:48;22.10;46.00
80218;DHT22;69533;37.974;23.708;2023-05-01T04:28:14;22.10;46.00
80218;DHT22;69533;37.974;23.708;2023-05-01T04:30:40;22.10;46.00
80218;DHT22;69533;37.974;23.708;2023-05-01T04:33:05;22.10;46.00
80218;DHT22;69533;37.974;23.708;2023-05-01T04:35:39;22.10;46.00
80218;DHT22;69533;37.974;23.708;2023-05-01T04:38:06;22.10;46.00
80218;DHT22;69533;37.974;23.708;2023-05-01T04:40:32;22.10;45.90
80218;DHT22;69533;37.974;23.708;2023-05-01T04:42:58;22.10;46.00
80218;DHT22;69533;37.974;23.708;2023-05-01T04:45:25;22.10;46.00
80218;DHT22;69533;37.974;23.708;2023-05-01T04:47:51;22.20;46.00
80218;DHT22;69533;37.974;23.708;2023-05-01T04:50:17;22.20;45.90
80218;DHT22;69533;37.974;23.708;2023-05-01T04:52:42;22.20;46.00
80218;DHT22;69533;37.974;23.708;2023-05-01T04:55:09;22.20;46.00
80218;DHT22;69533;37.974;23.708;2023-05-01T04:57:35;22.20;46.00
80218;DHT22;69533;37.974;23.708;2023-05-01T05:00:01;22.20;45.90
80218;DHT22;69533;37.974;23.708;2023-05-01T05:02:28;22.20;45.90
80218;DHT22;69533;37.974;23.708;2023-05-01T05:04:53;22.20;45.90
80218;DHT22;69533;37.974;23.708;2023-05-01T05:07:21;22.20;45.90
80218;DHT22;69533;37.974;23.708;2023-05-01T05:09:47;22.30;46.00
80218;DHT22;69533;37.974;23.708;2023-05-01T05:12:12;22.30;45.90
80218;DHT22;69533;37.974;23.708;2023-05-01T05:14:40;22.30;45.90
80218;DHT22;69533;37.974;23.708;2023-05-01T05:17:05;22.30;46.00
80218;DHT22;69533;37.974;23.708;2023-05-01T05:19:31;22.30;46.00
80218;DHT22;69533;37.974;23.708;2023-05-01T05:21:57;22.30;46.00
80218;DHT22;69533;37.974;23.708;2023-05-01T05:24:23;22.30;46.20
80218;DHT22;69533;37.974;23.708;2023-05-01T05:26:49;22.30;46.30
80218;DHT22;69533;37.974;23.708;2023-05-01T05:29:15;22.30;46.40
80218;DHT22;69533;37.974;23.708;2023-05-01T05:31:41;22.30;46.50
80218;DHT22;69533;37.974;23.708;2023-05-01T05:34:06;22.40;46.70
80218;DHT22;69533;37.974;23.708;2023-05-01T05:36:32;22.40;46.80
80218;DHT22;69533;37.974;23.708;2023-05-01T05:38:59;22.40;46.90
80218;DHT22;69533;37.974;23.708;2023-05-01T05:41:25;22.30;46.90
80218;DHT22;69533;37.974;23.708;2023-05-01T05:43:51;22.40;47.10
80218;DHT22;69533;37.974;23.708;2023-05-01T05:46:18;22.40;47.40
80218;DHT22;69533;37.974;23.708;2023-05-01T05:48:44;22.40;47.40
80218;DHT22;69533;37.974;23.708;2023-05-01T05:51:10;22.40;47.50
80218;DHT22;69533;37.974;23.708;2023-05-01T05:53:36;22.40;47.50
80218;DHT22;69533;37.974;23.708;2023-05-01T05:56:02;22.40;47.60
80218;DHT22;69533;37.974;23.708;2023-05-01T05:58:27;22.40;47.70
80218;DHT22;69533;37.974;23.708;2023-05-01T06:00:53;22.40;47.80
80218;DHT22;69533;37.974;23.708;2023-05-01T06:03:20;22.40;48.00
80218;DHT22;69533;37.974;23.708;2023-05-01T06:05:46;22.40;48.10
80218;DHT22;69533;37.974;23.708;2023-05-01T06:08:12;22.40;48.30
80218;DHT22;69533;37.974;23.708;2023-05-01T06:10:41;22.50;48.40
80218;DHT22;69533;37.974;23.708;2023-05-01T06:13:07;22.50;48.50
80218;DHT22;69533;37.974;23.708;2023-05-01T06:15:34;22.50;48.70
80218;DHT22;69533;37.974;23.708;2023-05-01T06:18:00;22.50;48.70
80218;DHT22;69533;37.974;23.708;2023-05-01T06:20:26;22.50;48.70
80218;DHT22;69533;37.974;23.708;2023-05-01T06:22:51;22.40;48.80
80218;DHT22;69533;37.974;23.708;2023-05-01T06:25:17;22.50;48.90
80218;DHT22;69533;37.974;23.708;2023-05-01T06:27:45;22.50;48.90
80218;DHT22;69533;37.974;23.708;2023-05-01T06:30:11;22.50;49.00
80218;DHT22;69533;37.974;23.708;2023-05-01T06:32:36;22.50;49.10
80218;DHT22;69533;37.974;23.708;2023-05-01T06:35:02;22.50;49.10
80218;DHT22;69533;37.974;23.708;2023-05-01T06:37:29;22.50;49.10
80218;DHT22;69533;37.974;23.708;2023-05-01T06:39:55;22.50;49.10
80218;DHT22;69533;37.974;23.708;2023-05-01T06:42:20;22.50;49.10
80218;DHT22;69533;37.974;23.708;2023-05-01T06:44:46;22.50;49.10
80218;DHT22;69533;37.974;23.708;2023-05-01T06:47:12;22.50;49.10
80218;DHT22;69533;37.974;23.708;2023-05-01T06:49:38;22.60;49.20
80218;DHT22;69533;37.974;23.708;2023-05-01T06:52:03;22.60;49.10
80218;DHT22;69533;37.974;23.708;2023-05-01T06:54:30;22.60;49.20
80218;DHT22;69533;37.974;23.708;2023-05-01T06:56:55;22.60;49.10
80218;DHT22;69533;37.974;23.708;2023-05-01T06:59:21;22.60;49.10
80218;DHT22;69533;37.974;23.708;2023-05-01T07:01:47;22.70;49.10
80218;DHT22;69533;37.974;23.708;2023-05-01T07:04:12;22.70;49.20
80218;DHT22;69533;37.974;23.708;2023-05-01T07:06:38;22.70;49.20
80218;DHT22;69533;37.974;23.708;2023-05-01T07:09:04;22.70;49.10
80218;DHT22;69533;37.974;23.708;2023-05-01T07:11:31;22.70;49.10
80218;DHT22;69533;37.974;23.708;2023-05-01T07:13:58;22.70;49.10
80218;DHT22;69533;37.974;23.708;2023-05-01T07:16:25;22.80;49.10
80218;DHT22;69533;37.974;23.708;2023-05-01T07:18:51;22.80;49.00
80218;DHT22;69533;37.974;23.708;2023-05-01T07:21:17;22.80;49.00
80218;DHT22;69533;37.974;23.708;2023-05-01T07:23:43;22.80;49.00
80218;DHT22;69533;37.974;23.708;2023-05-01T07:26:09;22.80;48.90
80218;DHT22;69533;37.974;23.708;2023-05-01T07:28:34;22.80;48.90
80218;DHT22;69533;37.974;23.708;2023-05-01T07:31:00;22.80;48.80
80218;DHT22;69533;37.974;23.708;2023-05-01T07:33:26;22.90;48.80
80218;DHT22;69533;37.974;23.708;2023-05-01T07:35:52;22.90;48.70
80218;DHT22;69533;37.974;23.708;2023-05-01T07:38:18;22.90;48.70
80218;DHT22;69533;37.974;23.708;2023-05-01T07:40:44;22.90;48.50
80218;DHT22;69533;37.974;23.708;2023-05-01T07:43:10;22.90;48.40
80218;DHT22;69533;37.974;23.708;2023-05-01T07:45:39;22.90;48.40
80218;DHT22;69533;37.974;23.708;2023-05-01T07:48:06;23.00;48.40
80218;DHT22;69533;37.974;23.708;2023-05-01T07:50:31;23.00;49.30
80218;DHT22;69533;37.974;23.708;2023-05-01T07:52:57;23.00;48.20
80218;DHT22;69533;37.974;23.708;2023-05-01T07:55:23;23.00;48.10
80218;DHT22;69533;37.974;23.708;2023-05-01T07:57:49;23.00;48.00
80218;DHT22;69533;37.974;23.708;2023-05-01T08:00:16;23.00;47.90
80218;DHT22;69533;37.974;23.708;2023-05-01T08:02:42;23.10;47.80
80218;DHT22;69533;37.974;23.708;2023-05-01T08:05:08;23.10;48.30
80218;DHT22;69533;37.974;23.708;2023-05-01T08:07:34;23.10;47.90
80218;DHT22;69533;37.974;23.708;2023-05-01T08:09:59;23.20;48.00
80218;DHT22;69533;37.974;23.708;2023-05-01T08:12:27;23.20;48.10
80218;DHT22;69533;37.974;23.708;2023-05-01T08:14:53;23.20;48.10
80218;DHT22;69533;37.974;23.708;2023-05-01T08:17:18;23.20;48.10
80218;DHT22;69533;37.974;23.708;2023-05-01T08:19:44;23.20;48.20
80218;DHT22;69533;37.974;23.708;2023-05-01T08:22:10;23.30;48.40
80218;DHT22;69533;37.974;23.708;2023-05-01T08:24:37;23.30;49.30
80218;DHT22;69533;37.974;23.708;2023-05-01T08:27:03;23.30;48.30
80218;DHT22;69533;37.974;23.708;2023-05-01T08:29:29;23.30;48.30
80218;DHT22;69533;37.974;23.708;2023-05-01T08:31:57;23.30;48.40
80218;DHT22;69533;37.974;23.708;2023-05-01T08:34:23;23.30;48.40
80218;DHT22;69533;37.974;23.708;2023-05-01T08:36:49;23.30;48.50
80218;DHT22;69533;37.974;23.708;2023-05-01T08:39:15;23.40;48.50
80218;DHT22;69533;37.974;23.708;2023-05-01T08:41:45;23.40;48.60
80218;DHT22;69533;37.974;23.708;2023-05-01T08:44:13;23.50;48.60
80218;DHT22;69533;37.974;23.708;2023-05-01T08:46:46;23.50;48.60
80218;DHT22;69533;37.974;23.708;2023-05-01T08:49:15;23.50;48.60
80218;DHT22;69533;37.974;23.708;2023-05-01T08:51:44;23.50;49.60
80218;DHT22;69533;37.974;23.708;2023-05-01T08:54:11;23.50;48.60
80218;DHT22;69533;37.974;23.708;2023-05-01T08:56:38;23.50;48.70
80218;DHT22;69533;37.974;23.708;2023-05-01T08:59:04;23.50;48.90
80218;DHT22;69533;37.974;23.708;2023-05-01T09:01:34;23.50;49.10
80218;DHT22;69533;37.974;23.708;2023-05-01T09:04:04;23.50;49.30
80218;DHT22;69533;37.974;23.708;2023-05-01T09:06:31;23.60;50.40
80218;DHT22;69533;37.974;23.708;2023-05-01T09:08:57;23.60;49.60
80218;DHT22;69533;37.974;23.708;2023-05-01T09:11:24;23.60;49.50
80218;DHT22;69533;37.974;23.708;2023-05-01T09:13:51;23.60;49.80
80218;DHT22;69533;37.974;23.708;2023-05-01T09:16:18;23.60;49.70
80218;DHT22;69533;37.974;23.708;2023-05-01T09:18:44;23.60;49.70
80218;DHT22;69533;37.974;23.708;2023-05-01T09:21:10;23.60;49.70
80218;DHT22;69533;37.974;23.708;2023-05-01T09:23:36;23.60;49.60
80218;DHT22;69533;37.974;23.708;2023-05-01T09:26:08;23.70;49.60
80218;DHT22;69533;37.974;23.708;2023-05-01T09:28:45;23.70;49.40
80218;DHT22;69533;37.974;23.708;2023-05-01T09:31:28;23.70;49.30
80218;DHT22;69533;37.974;23.708;2023-05-01T09:34:02;23.80;49.30
80218;DHT22;69533;37.974;23.708;2023-05-01T09:36:29;23.70;49.00
80218;DHT22;69533;37.974;23.708;2023-05-01T09:38:59;23.80;49.10
80218;DHT22;69533;37.974;23.708;2023-05-01T09:41:25;23.70;49.00
80218;DHT22;69533;37.974;23.708;2023-05-01T09:43:52;23.80;49.10
80218;DHT22;69533;37.974;23.708;2023-05-01T09:46:18;23.70;49.00
80218;DHT22;69533;37.974;23.708;2023-05-01T09:48:55;23.80;48.90
80218;DHT22;69533;37.974;23.708;2023-05-01T09:51:28;23.70;48.80
80218;DHT22;69533;37.974;23.708;2023-05-01T09:54:00;23.80;49.10
80218;DHT22;69533;37.974;23.708;2023-05-01T09:56:28;23.80;49.00
80218;DHT22;69533;37.974;23.708;2023-05-01T09:58:55;23.80;49.00
80218;DHT22;69533;37.974;23.708;2023-05-01T10:04:02;23.80;49.00
80218;DHT22;69533;37.974;23.708;2023-05-01T10:06:28;23.80;48.70
80218;DHT22;69533;37.974;23.708;2023-05-01T10:08:54;23.80;48.60
80218;DHT22;69533;37.974;23.708;2023-05-01T10:11:20;23.90;48.50
80218;DHT22;69533;37.974;23.708;2023-05-01T10:14:07;23.90;48.50
80218;DHT22;69533;37.974;23.708;2023-05-01T10:16:35;23.90;48.40
80218;DHT22;69533;37.974;23.708;2023-05-01T10:19:02;24.00;48.20
80218;DHT22;69533;37.974;23.708;2023-05-01T10:21:29;24.00;48.10
80218;DHT22;69533;37.974;23.708;2023-05-01T10:23:56;24.00;48.00
80218;DHT22;69533;37.974;23.708;2023-05-01T10:26:22;24.00;47.80
80218;DHT22;69533;37.974;23.708;2023-05-01T10:28:51;23.90;47.80
80218;DHT22;69533;37.974;23.708;2023-05-01T10:31:17;23.90;47.70
80218;DHT22;69533;37.974;23.708;2023-05-01T10:33:43;23.90;47.60
80218;DHT22;69533;37.974;23.708;2023-05-01T10:36:25;23.90;47.50
80218;DHT22;69533;37.974;23.708;2023-05-01T10:38:53;23.90;47.40
80218;DHT22;69533;37.974;23.708;2023-05-01T10:44:23;23.90;47.30
80218;DHT22;69533;37.974;23.708;2023-05-01T10:46:49;23.90;47.30
80218;DHT22;69533;37.974;23.708;2023-05-01T10:49:16;23.90;47.40
80218;DHT22;69533;37.974;23.708;2023-05-01T10:51:58;23.80;47.50
80218;DHT22;69533;37.974;23.708;2023-05-01T10:54:26;23.80;47.70
80218;DHT22;69533;37.974;23.708;2023-05-01T10:56:54;23.80;47.70
80218;DHT22;69533;37.974;23.708;2023-05-01T10:59:20;23.80;47.70
80218;DHT22;69533;37.974;23.708;2023-05-01T11:01:47;23.80;47.70
80218;DHT22;69533;37.974;23.708;2023-05-01T11:09:54;23.80;47.50
80218;DHT22;69533;37.974;23.708;2023-05-01T11:15:09;23.70;47.10
80218;DHT22;69533;37.974;23.708;2023-05-01T11:23:01;23.70;47.10
80218;DHT22;69533;37.974;23.708;2023-05-01T11:25:28;23.70;47.20
80218;DHT22;69533;37.974;23.708;2023-05-01T11:28:02;23.80;47.50
80218;DHT22;69533;37.974;23.708;2023-05-01T11:30:38;23.70;47.50
80218;DHT22;69533;37.974;23.708;2023-05-01T11:33:04;23.70;47.50
80218;DHT22;69533;37.974;23.708;2023-05-01T11:35:31;23.70;47.40
80218;DHT22;69533;37.974;23.708;2023-05-01T11:37:57;23.70;47.40
80218;DHT22;69533;37.974;23.708;2023-05-01T11:40:31;23.60;47.40
80218;DHT22;69533;37.974;23.708;2023-05-01T11:43:07;23.70;47.50
80218;DHT22;69533;37.974;23.708;2023-05-01T11:45:35;23.60;47.40
80218;DHT22;69533;37.974;23.708;2023-05-01T11:48:01;23.70;47.40
80218;DHT22;69533;37.974;23.708;2023-05-01T11:50:31;23.70;47.30
80218;DHT22;69533;37.974;23.708;2023-05-01T11:52:58;23.70;47.20
80218;DHT22;69533;37.974;23.708;2023-05-01T11:55:34;23.70;47.20
80218;DHT22;69533;37.974;23.708;2023-05-01T11:58:00;23.70;47.20
80218;DHT22;69533;37.974;23.708;2023-05-01T12:00:36;23.80;47.30
80218;DHT22;69533;37.974;23.708;2023-05-01T12:03:05;23.80;47.30
80218;DHT22;69533;37.974;23.708;2023-05-01T12:05:32;23.80;47.20
80218;DHT22;69533;37.974;23.708;2023-05-01T12:08:23;23.80;47.00
80218;DHT22;69533;37.974;23.708;2023-05-01T12:10:53;23.80;46.90
80218;DHT22;69533;37.974;23.708;2023-05-01T12:13:23;23.80;46.50
80218;DHT22;69533;37.974;23.708;2023-05-01T12:15:54;23.80;46.00
80218;DHT22;69533;37.974;23.708;2023-05-01T12:18:21;23.90;45.80
80218;DHT22;69533;37.974;23.708;2023-05-01T12:20:48;23.90;45.50
80218;DHT22;69533;37.974;23.708;2023-05-01T12:23:19;23.90;45.20
80218;DHT22;69533;37.974;23.708;2023-05-01T12:25:54;23.90;45.20
80218;DHT22;69533;37.974;23.708;2023-05-01T12:28:19;23.90;45.00
80218;DHT22;69533;37.974;23.708;2023-05-01T12:30:47;23.90;44.80
80218;DHT22;69533;37.974;23.708;2023-05-01T12:33:20;24.00;44.70
80218;DHT22;69533;37.974;23.708;2023-05-01T12:35:48;24.00;44.30
80218;DHT22;69533;37.974;23.708;2023-05-01T12:38:20;23.90;44.00
80218;DHT22;69533;37.974;23.708;2023-05-01T12:43:17;24.00;43.40
80218;DHT22;69533;37.974;23.708;2023-05-01T12:45:43;24.00;43.00
80218;DHT22;69533;37.974;23.708;2023-05-01T12:48:12;24.00;42.90
80218;DHT22;69533;37.974;23.708;2023-05-01T12:50:41;24.00;42.40
80218;DHT22;69533;37.974;23.708;2023-05-01T12:53:08;24.00;42.20
80218;DHT22;69533;37.974;23.708;2023-05-01T12:55:47;24.00;41.90
80218;DHT22;69533;37.974;23.708;2023-05-01T12:58:14;24.00;41.60
80218;DHT22;69533;37.974;23.708;2023-05-01T13:00:46;24.00;41.30
80218;DHT22;69533;37.974;23.708;2023-05-01T13:03:12;24.00;41.20
80218;DHT22;69533;37.974;23.708;2023-05-01T13:05:59;24.00;41.30
80218;DHT22;69533;37.974;23.708;2023-05-01T13:08:38;23.90;41.00
80218;DHT22;69533;37.974;23.708;2023-05-01T13:11:15;24.00;40.90
80218;DHT22;69533;37.974;23.708;2023-05-01T13:13:45;24.00;40.70
80218;DHT22;69533;37.974;23.708;2023-05-01T13:16:14;24.00;40.40
80218;DHT22;69533;37.974;23.708;2023-05-01T13:18:45;24.00;40.40
80218;DHT22;69533;37.974;23.708;2023-05-01T13:21:19;24.00;40.10
80218;DHT22;69533;37.974;23.708;2023-05-01T13:23:56;24.00;40.00
80218;DHT22;69533;37.974;23.708;2023-05-01T13:26:27;24.00;40.00
80218;DHT22;69533;37.974;23.708;2023-05-01T13:28:53;24.00;39.90
80218;DHT22;69533;37.974;23.708;2023-05-01T13:31:20;24.00;39.70
80218;DHT22;69533;37.974;23.708;2023-05-01T13:33:48;24.00;39.70
80218;DHT22;69533;37.974;23.708;2023-05-01T13:36:15;24.00;39.50
80218;DHT22;69533;37.974;23.708;2023-05-01T13:38:52;24.00;39.50
80218;DHT22;69533;37.974;23.708;2023-05-01T13:41:23;24.00;39.60
80218;DHT22;69533;37.974;23.708;2023-05-01T13:43:51;24.00;39.50
80218;DHT22;69533;37.974;23.708;2023-05-01T13:46:19;24.00;39.40
80218;DHT22;69533;37.974;23.708;2023-05-01T13:48:46;24.00;39.40
80218;DHT22;69533;37.974;23.708;2023-05-01T13:51:13;24.00;39.40
80218;DHT22;69533;37.974;23.708;2023-05-01T13:53:40;24.00;39.30
80218;DHT22;69533;37.974;23.708;2023-05-01T13:56:08;24.00;39.20
80218;DHT22;69533;37.974;23.708;2023-05-01T13:58:34;24.00;39.20
80218;DHT22;69533;37.974;23.708;2023-05-01T14:01:00;24.00;39.10
80218;DHT22;69533;37.974;23.708;2023-05-01T14:03:34;24.10;39.00
80218;DHT22;69533;37.974;23.708;2023-05-01T14:06:01;24.10;38.90
80218;DHT22;69533;37.974;23.708;2023-05-01T14:08:28;24.10;38.90
80218;DHT22;69533;37.974;23.708;2023-05-01T14:10:56;24.10;38.90
80218;DHT22;69533;37.974;23.708;2023-05-01T14:13:26;24.00;39.00
80218;DHT22;69533;37.974;23.708;2023-05-01T14:15:51;24.10;39.10
80218;DHT22;69533;37.974;23.708;2023-05-01T14:18:17;24.00;39.10
80218;DHT22;69533;37.974;23.708;2023-05-01T14:20:45;24.10;39.30
80218;DHT22;69533;37.974;23.708;2023-05-01T14:23:17;24.10;39.50
80218;DHT22;69533;37.974;23.708;2023-05-01T14:25:47;24.00;39.50
80218;DHT22;69533;37.974;23.708;2023-05-01T14:28:14;24.00;39.60
80218;DHT22;69533;37.974;23.708;2023-05-01T14:30:40;24.00;39.80
80218;DHT22;69533;37.974;23.708;2023-05-01T14:33:10;24.10;40.00
80218;DHT22;69533;37.974;23.708;2023-05-01T14:35:50;24.00;40.10
80218;DHT22;69533;37.974;23.708;2023-05-01T14:38:17;24.00;40.20
80218;DHT22;69533;37.974;23.708;2023-05-01T14:40:44;24.00;40.30
80218;DHT22;69533;37.974;23.708;2023-05-01T14:43:13;24.00;40.40
80218;DHT22;69533;37.974;23.708;2023-05-01T14:45:41;24.00;40.60
80218;DHT22;69533;37.974;23.708;2023-05-01T14:48:09;24.10;40.60
80218;DHT22;69533;37.974;23.708;2023-05-01T14:50:36;24.00;40.70
80218;DHT22;69533;37.974;23.708;2023-05-01T14:53:02;24.00;40.90
80218;DHT22;69533;37.974;23.708;2023-05-01T14:55:30;24.00;41.00
80218;DHT22;69533;37.974;23.708;2023-05-01T14:57:59;24.00;41.10
80218;DHT22;69533;37.974;23.708;2023-05-01T15:00:26;24.00;41.10
80218;DHT22;69533;37.974;23.708;2023-05-01T15:02:56;24.00;41.20
80218;DHT22;69533;37.974;23.708;2023-05-01T15:05:22;24.00;41.30
80218;DHT22;69533;37.974;23.708;2023-05-01T15:07:50;24.00;41.30
80218;DHT22;69533;37.974;23.708;2023-05-01T15:10:17;24.00;41.40
80218;DHT22;69533;37.974;23.708;2023-05-01T15:12:42;24.00;41.50
80218;DHT22;69533;37.974;23.708;2023-05-01T15:15:08;23.90;41.60
80218;DHT22;69533;37.974;23.708;2023-05-01T15:17:34;24.00;41.70
80218;DHT22;69533;37.974;23.708;2023-05-01T15:20:00;23.90;41.80
80218;DHT22;69533;37.974;23.708;2023-05-01T15:22:25;24.00;41.90
80218;DHT22;69533;37.974;23.708;2023-05-01T15:24:51;24.00;41.90
80218;DHT22;69533;37.974;23.708;2023-05-01T15:27:17;23.90;41.80
80218;DHT22;69533;37.974;23.708;2023-05-01T15:29:43;24.00;41.80
80218;DHT22;69533;37.974;23.708;2023-05-01T15:32:08;23.90;41.70
80218;DHT22;69533;37.974;23.708;2023-05-01T15:34:34;24.00;41.60
80218;DHT22;69533;37.974;23.708;2023-05-01T15:37:00;23.90;41.50
80218;DHT22;69533;37.974;23.708;2023-05-01T15:39:28;23.90;41.50
80218;DHT22;69533;37.974;23.708;2023-05-01T15:41:54;23.90;41.40
80218;DHT22;69533;37.974;23.708;2023-05-01T15:44:20;23.90;41.50
80218;DHT22;69533;37.974;23.708;2023-05-01T15:46:46;23.90;41.40
80218;DHT22;69533;37.974;23.708;2023-05-01T15:49:13;23.80;41.20
80218;DHT22;69533;37.974;23.708;2023-05-01T15:51:39;23.90;41.30
80218;DHT22;69533;37.974;23.708;2023-05-01T15:54:05;23.90;41.30